createdAt,value
2017-11-04T00:01:18.994Z,38.60
2017-11-04T00:03:47.187Z,40.00
2017-11-04T00:06:14.631Z,41.53
2017-11-04T00:08:42.810Z,40.00
2017-11-04T00:11:10.992Z,41.70
2017-11-04T00:13:39.171Z,38.17
2017-11-04T00:16:06.583Z,38.83
2017-11-04T00:18:34.001Z,39.37
2017-11-04T00:21:02.649Z,40.70
2017-11-04T00:23:31.757Z,38.87
2017-11-04T00:25:59.944Z,40.40
2017-11-04T00:28:27.352Z,40.13
2017-11-04T00:30:54.774Z,39.03
2017-11-04T00:33:22.228Z,39.38
2017-11-04T00:35:49.643Z,39.57
2017-11-04T00:38:17.823Z,39.30
2017-11-04T00:40:47.011Z,39.57
2017-11-04T00:43:14.422Z,41.50
2017-11-04T00:45:41.831Z,38.37
2017-11-04T00:48:09.263Z,39.80
2017-11-04T00:50:36.671Z,38.20
2017-11-04T00:53:04.079Z,40.43
2017-11-04T00:55:32.409Z,41.17
2017-11-04T00:57:59.876Z,39.40
2017-11-04T01:00:27.271Z,40.47
2017-11-04T01:02:55.481Z,39.55
2017-11-04T01:05:22.891Z,39.20
2017-11-04T01:07:50.419Z,39.60
2017-11-04T01:10:17.839Z,39.33
2017-11-04T01:12:45.244Z,39.47
2017-11-04T01:15:12.676Z,40.10
2017-11-04T01:17:40.083Z,39.10
2017-11-04T01:20:08.262Z,39.57
2017-11-04T01:22:36.459Z,38.93
2017-11-04T01:25:03.870Z,38.77
2017-11-04T01:27:31.316Z,37.37
2017-11-04T01:29:58.742Z,38.00
2017-11-04T01:32:26.195Z,39.53
2017-11-04T01:34:53.610Z,38.03
2017-11-04T01:37:21.806Z,39.03
2017-11-04T01:39:49.221Z,39.70
2017-11-04T01:42:16.631Z,39.35
2017-11-04T01:44:44.053Z,40.03
2017-11-04T01:47:12.227Z,38.10
2017-11-04T01:49:40.407Z,40.90
2017-11-04T01:52:08.613Z,40.40
2017-11-04T01:54:36.058Z,39.60
2017-11-04T01:57:04.619Z,38.55
2017-11-04T01:59:33.730Z,39.00
2017-11-04T02:02:01.134Z,38.93
2017-11-04T02:04:28.555Z,39.77
2017-11-04T02:06:55.970Z,38.40
2017-11-04T02:09:24.781Z,38.57
2017-11-04T02:11:52.214Z,37.70
2017-11-04T02:14:19.625Z,38.57
2017-11-04T02:16:47.035Z,37.67
2017-11-04T02:19:15.213Z,39.50
2017-11-04T02:21:43.391Z,37.50
2017-11-04T02:24:10.804Z,37.80
2017-11-04T02:26:38.214Z,38.47
2017-11-04T02:29:05.640Z,40.57
2017-11-04T02:31:34.746Z,38.07
2017-11-04T02:34:02.923Z,38.57
2017-11-04T02:36:31.100Z,37.13
2017-11-04T02:38:58.518Z,36.17
2017-11-04T02:41:25.923Z,39.10
2017-11-04T02:43:53.333Z,37.40
2017-11-04T02:46:20.743Z,37.83
2017-11-04T02:48:48.156Z,37.67
2017-11-04T02:51:16.342Z,37.30
2017-11-04T02:53:44.516Z,38.90
2017-11-04T02:56:12.707Z,36.70
2017-11-04T02:58:40.115Z,38.30
2017-11-04T03:01:07.535Z,37.20
2017-11-04T03:03:36.084Z,37.95
2017-11-04T03:06:05.178Z,37.77
2017-11-04T03:08:33.367Z,37.23
2017-11-04T03:11:01.283Z,38.47
2017-11-04T03:13:28.697Z,38.70
2017-11-04T03:15:56.119Z,37.73
2017-11-04T03:18:24.298Z,39.10
2017-11-04T03:20:52.484Z,37.67
2017-11-04T03:23:20.667Z,39.93
2017-11-04T03:25:48.081Z,37.33
2017-11-04T03:28:15.487Z,37.50
2017-11-04T03:30:42.963Z,37.30
2017-11-04T03:33:10.362Z,38.57
2017-11-04T03:35:38.538Z,39.20
2017-11-04T03:38:06.864Z,38.78
2017-11-04T03:40:34.275Z,38.53
2017-11-04T03:43:02.463Z,39.50
2017-11-04T03:45:30.690Z,39.20
2017-11-04T03:47:58.099Z,38.93
2017-11-04T03:50:25.518Z,38.27
2017-11-04T03:52:52.935Z,37.33
2017-11-04T03:55:20.390Z,38.43
2017-11-04T03:57:49.738Z,40.20
2017-11-04T04:00:17.926Z,40.17
2017-11-04T04:02:46.095Z,39.37
2017-11-04T04:05:13.520Z,40.10
2017-11-04T04:07:40.931Z,39.90
2017-11-04T04:10:08.362Z,38.33
2017-11-04T04:12:37.472Z,40.40
2017-11-04T04:15:05.644Z,39.03
2017-11-04T04:17:33.823Z,39.80
2017-11-04T04:20:01.243Z,40.40
2017-11-04T04:22:28.669Z,38.97
2017-11-04T04:24:56.075Z,39.00
2017-11-04T04:27:24.256Z,38.43
2017-11-04T04:29:51.686Z,38.23
2017-11-04T04:32:19.110Z,38.70
2017-11-04T04:34:46.550Z,39.80
2017-11-04T04:37:13.947Z,39.53
2017-11-04T04:39:41.372Z,38.50
2017-11-04T04:42:08.788Z,36.77
2017-11-04T04:44:37.883Z,38.40
2017-11-04T04:47:05.303Z,36.83
2017-11-04T04:49:32.715Z,39.33
2017-11-04T04:52:00.134Z,39.13
2017-11-04T04:54:27.542Z,39.17
2017-11-04T04:56:54.963Z,37.90
2017-11-04T04:59:23.155Z,38.40
2017-11-04T05:01:50.575Z,39.83
2017-11-04T05:04:17.983Z,39.30
2017-11-04T05:06:45.398Z,39.67
2017-11-04T05:09:13.585Z,37.90
2017-11-04T05:11:41.017Z,38.17
2017-11-04T05:14:09.202Z,38.47
2017-11-04T05:16:38.303Z,40.03
2017-11-04T05:19:05.716Z,38.70
2017-11-04T05:21:33.148Z,38.20
2017-11-04T05:24:00.555Z,36.00
2017-11-04T05:26:28.749Z,36.80
2017-11-04T05:28:56.934Z,36.67
2017-11-04T05:31:24.355Z,36.20
2017-11-04T05:33:52.538Z,38.40
2017-11-04T05:36:20.736Z,38.97
2017-11-04T05:38:48.150Z,37.13
2017-11-04T05:41:15.573Z,36.27
2017-11-04T05:43:42.990Z,38.23
2017-11-04T05:46:10.403Z,37.50
2017-11-04T05:48:39.256Z,36.73
2017-11-04T05:51:06.677Z,36.10
2017-11-04T05:53:34.867Z,36.87
2017-11-04T05:56:07.363Z,36.67
2017-11-04T05:58:34.758Z,38.30
2017-11-04T06:01:03.130Z,36.97
2017-11-04T06:03:30.535Z,36.67
2017-11-04T06:05:58.208Z,36.70
2017-11-04T06:08:25.627Z,35.13
2017-11-04T06:10:53.807Z,34.67
2017-11-04T06:13:21.990Z,36.40
2017-11-04T06:15:49.409Z,36.70
2017-11-04T06:18:16.832Z,35.23
2017-11-04T06:20:44.275Z,35.30
2017-11-04T06:23:11.736Z,36.23
2017-11-04T06:25:40.383Z,36.10
2017-11-04T06:28:09.489Z,35.97
2017-11-04T06:30:37.677Z,36.90
2017-11-04T06:33:05.086Z,37.87
2017-11-04T06:35:32.509Z,38.60
2017-11-04T06:37:59.958Z,36.40
2017-11-04T06:40:27.415Z,35.53
2017-11-04T06:42:54.835Z,35.70
2017-11-04T06:45:23.010Z,36.60
2017-11-04T06:47:51.199Z,36.07
2017-11-04T06:50:18.615Z,36.50
2017-11-04T06:52:46.035Z,36.90
2017-11-04T06:55:13.467Z,36.83
2017-11-04T06:57:40.883Z,36.70
2017-11-04T07:00:08.315Z,36.37
2017-11-04T07:02:35.737Z,36.23
2017-11-04T07:05:03.146Z,36.73
2017-11-04T07:07:30.574Z,36.90
2017-11-04T07:09:57.994Z,36.30
2017-11-04T07:12:25.417Z,36.00
2017-11-04T07:14:52.869Z,36.60
2017-11-04T07:17:20.266Z,36.13
2017-11-04T07:19:48.460Z,38.40
2017-11-04T07:22:15.870Z,36.23
2017-11-04T07:24:44.051Z,37.23
2017-11-04T07:27:12.226Z,37.23
2017-11-04T07:29:41.335Z,37.83
2017-11-04T07:32:08.750Z,37.20
2017-11-04T07:34:36.178Z,37.60
2017-11-04T07:37:03.587Z,36.57
2017-11-04T07:39:31.792Z,37.43
2017-11-04T07:41:59.212Z,36.63
2017-11-04T07:44:26.620Z,37.23
2017-11-04T07:46:54.050Z,36.77
2017-11-04T07:49:21.466Z,36.17
2017-11-04T07:51:48.897Z,34.30
2017-11-04T07:54:16.303Z,39.40
2017-11-04T07:56:44.484Z,39.17
2017-11-04T07:59:11.964Z,37.33
2017-11-04T08:01:39.354Z,36.70
2017-11-04T08:04:06.787Z,36.70
2017-11-04T08:06:34.191Z,37.43
2017-11-04T08:09:02.380Z,37.13
2017-11-04T08:11:30.561Z,38.13
2017-11-04T08:13:57.979Z,37.27
2017-11-04T08:16:25.401Z,37.97
2017-11-04T08:18:52.818Z,37.80
2017-11-04T08:21:21.001Z,38.13
2017-11-04T08:23:48.417Z,37.63
2017-11-04T08:26:15.846Z,37.07
2017-11-04T08:28:43.272Z,37.83
2017-11-04T08:31:10.688Z,37.77
2017-11-04T08:33:38.119Z,37.53
2017-11-04T08:36:05.546Z,37.60
2017-11-04T08:38:33.855Z,38.50
2017-11-04T08:41:01.267Z,38.50
2017-11-04T08:43:28.691Z,37.60
2017-11-04T08:45:56.105Z,38.65
2017-11-04T08:48:23.510Z,38.10
2017-11-04T08:50:51.691Z,35.47
2017-11-04T08:53:19.875Z,38.07
2017-11-04T08:55:48.056Z,37.40
2017-11-04T08:58:15.467Z,36.30
2017-11-04T09:00:43.767Z,37.50
2017-11-04T09:03:12.878Z,36.20
2017-11-04T09:05:40.295Z,37.90
2017-11-04T09:08:07.779Z,38.87
2017-11-04T09:10:35.992Z,38.07
2017-11-04T09:13:03.390Z,38.53
2017-11-04T09:15:30.903Z,38.47
2017-11-04T09:17:58.324Z,39.07
2017-11-04T09:20:26.494Z,38.07
2017-11-04T09:22:54.674Z,38.00
2017-11-04T09:25:22.851Z,35.67
2017-11-04T09:27:50.258Z,37.27
2017-11-04T09:30:17.674Z,38.37
2017-11-04T09:32:45.101Z,39.27
2017-11-04T09:35:12.508Z,38.00
2017-11-04T09:37:39.914Z,36.27
2017-11-04T09:40:08.090Z,38.23
2017-11-04T09:42:36.304Z,38.97
2017-11-04T09:45:03.859Z,39.03
2017-11-04T09:47:31.255Z,38.33
2017-11-04T09:49:58.663Z,37.57
2017-11-04T09:52:26.083Z,37.53
2017-11-04T09:54:54.261Z,37.67
2017-11-04T09:57:22.448Z,37.27
2017-11-04T09:59:49.859Z,37.23
2017-11-04T10:02:17.283Z,38.20
2017-11-04T10:04:44.698Z,36.87
2017-11-04T10:07:12.894Z,37.60
2017-11-04T10:09:40.319Z,36.63
2017-11-04T10:12:07.838Z,37.43
2017-11-04T10:14:35.230Z,39.33
2017-11-04T10:17:02.655Z,35.45
2017-11-04T10:19:30.066Z,37.80
2017-11-04T10:21:57.483Z,38.60
2017-11-04T10:24:24.903Z,37.37
2017-11-04T10:26:52.327Z,36.80
2017-11-04T10:29:20.510Z,37.23
2017-11-04T10:31:47.924Z,37.73
2017-11-04T10:34:15.348Z,37.93
2017-11-04T10:36:42.767Z,36.77
2017-11-04T10:39:10.972Z,37.37
2017-11-04T10:41:38.435Z,38.07
2017-11-04T10:44:05.860Z,37.17
2017-11-04T10:46:33.856Z,37.30
2017-11-04T10:49:01.304Z,37.13
2017-11-04T10:51:28.720Z,35.90
2017-11-04T10:53:56.147Z,37.13
2017-11-04T10:56:23.580Z,35.97
2017-11-04T10:58:51.008Z,35.20
2017-11-04T11:01:19.186Z,37.63
2017-11-04T11:03:46.608Z,35.53
2017-11-04T11:06:14.120Z,33.90
2017-11-04T11:08:41.559Z,35.50
2017-11-04T11:11:09.888Z,34.17
2017-11-04T11:13:37.310Z,36.70
2017-11-04T11:16:04.720Z,35.33
2017-11-04T11:18:32.906Z,36.53
2017-11-04T11:21:01.086Z,35.57
2017-11-04T11:23:29.266Z,37.33
2017-11-04T11:25:56.693Z,35.90
2017-11-04T11:28:24.114Z,36.00
2017-11-04T11:30:51.552Z,35.17
2017-11-04T11:33:18.966Z,36.43
2017-11-04T11:35:46.468Z,36.23
2017-11-04T11:38:13.885Z,37.40
2017-11-04T11:40:42.063Z,37.43
2017-11-04T11:43:10.256Z,36.10
2017-11-04T11:45:37.681Z,33.10
2017-11-04T11:48:05.864Z,35.83
2017-11-04T11:50:34.058Z,32.60
2017-11-04T11:53:01.476Z,36.13
2017-11-04T11:55:29.511Z,32.93
2017-11-04T11:57:56.952Z,34.38
2017-11-04T12:00:24.377Z,33.93
2017-11-04T12:02:52.556Z,36.77
2017-11-04T12:05:20.747Z,35.63
2017-11-04T12:07:48.162Z,35.53
2017-11-04T12:10:15.597Z,35.37
2017-11-04T12:12:43.019Z,35.23
2017-11-04T12:15:10.444Z,35.73
2017-11-04T12:17:38.638Z,35.43
2017-11-04T12:20:06.055Z,34.87
2017-11-04T12:22:33.491Z,35.00
2017-11-04T12:25:00.901Z,34.53
2017-11-04T12:27:28.382Z,35.77
2017-11-04T12:29:55.786Z,35.83
2017-11-04T12:32:23.207Z,34.80
2017-11-04T12:34:50.631Z,34.57
2017-11-04T12:37:18.055Z,34.63
2017-11-04T12:39:46.244Z,33.43
2017-11-04T12:42:14.429Z,34.00
2017-11-04T12:44:41.868Z,35.33
2017-11-04T12:47:10.055Z,35.50
2017-11-04T12:49:37.487Z,34.53
2017-11-04T12:52:05.683Z,34.57
2017-11-04T12:54:33.095Z,34.07
2017-11-04T12:57:00.517Z,32.90
2017-11-04T13:02:26.594Z,32.20
2017-11-04T13:04:54.012Z,33.10
2017-11-04T13:07:21.431Z,33.27
2017-11-04T13:09:49.614Z,34.50
2017-11-04T13:14:53.342Z,32.80
2017-11-04T13:17:20.822Z,34.10
2017-11-04T13:19:49.385Z,33.17
2017-11-04T13:22:16.807Z,33.07
2017-11-04T13:24:44.220Z,35.77
2017-11-04T13:27:11.685Z,33.67
2017-11-04T13:29:39.159Z,35.37
2017-11-04T13:32:06.575Z,35.13
2017-11-04T13:34:34.043Z,33.83
2017-11-04T13:37:01.513Z,35.27
2017-11-04T13:39:28.940Z,33.73
2017-11-04T13:41:56.355Z,35.00
2017-11-04T13:44:23.775Z,36.23
2017-11-04T13:46:51.227Z,33.97
2017-11-04T13:49:20.557Z,33.00
2017-11-04T13:51:47.986Z,31.30
2017-11-04T13:54:15.441Z,32.10
2017-11-04T13:56:42.851Z,32.50
2017-11-04T13:59:11.036Z,30.87
2017-11-04T14:01:39.215Z,31.80
2017-11-04T14:04:07.421Z,30.10
2017-11-04T14:06:34.836Z,30.87
2017-11-04T14:09:03.037Z,33.30
2017-11-04T14:11:30.450Z,30.80
2017-11-04T14:13:57.887Z,31.97
2017-11-04T14:16:25.310Z,32.63
2017-11-04T14:18:52.720Z,31.63
2017-11-04T14:21:20.146Z,30.67
2017-11-04T14:23:47.554Z,33.47
2017-11-04T14:26:15.044Z,31.97
2017-11-04T14:28:42.456Z,30.87
2017-11-04T14:31:10.639Z,30.20
2017-11-04T14:33:38.068Z,31.37
2017-11-04T14:36:05.601Z,30.30
2017-11-04T14:38:33.019Z,29.80
2017-11-04T14:41:00.757Z,27.67
2017-11-04T14:43:28.158Z,28.20
2017-11-04T14:45:55.627Z,26.30
2017-11-04T14:48:23.047Z,28.87
2017-11-04T14:50:50.458Z,27.97
2017-11-04T14:53:17.883Z,27.40
2017-11-04T14:55:45.828Z,26.70
2017-11-04T14:58:13.244Z,26.37
2017-11-04T15:00:40.670Z,26.37
2017-11-04T15:03:08.092Z,26.30
2017-11-04T15:05:36.500Z,27.10
2017-11-04T15:08:03.907Z,27.80
2017-11-04T15:10:32.124Z,26.33
2017-11-04T15:12:59.588Z,27.67
2017-11-04T15:15:26.995Z,26.70
2017-11-04T15:17:55.203Z,27.40
2017-11-04T15:20:22.620Z,27.47
2017-11-04T15:22:51.662Z,30.50
2017-11-04T15:25:19.089Z,28.40
2017-11-04T15:27:47.269Z,29.43
2017-11-04T15:30:14.707Z,31.07
2017-11-04T15:32:42.114Z,29.30
2017-11-04T15:35:09.540Z,29.27
2017-11-04T15:37:36.961Z,29.30
2017-11-04T15:40:04.381Z,30.60
2017-11-04T15:42:31.807Z,30.33
2017-11-04T15:44:59.223Z,28.38
2017-11-04T15:47:26.643Z,30.80
2017-11-04T15:49:54.103Z,29.40
2017-11-04T15:52:21.536Z,30.53
2017-11-04T15:54:49.712Z,29.73
2017-11-04T15:57:17.146Z,29.37
2017-11-04T15:59:45.338Z,29.70
2017-11-04T16:02:13.196Z,30.10
2017-11-04T16:04:40.615Z,30.83
2017-11-04T16:07:08.055Z,30.50
2017-11-04T16:09:35.471Z,29.30
2017-11-04T16:12:02.890Z,29.17
2017-11-04T16:14:31.100Z,29.63
2017-11-04T16:16:58.524Z,28.80
2017-11-04T16:19:26.871Z,27.53
2017-11-04T16:21:54.302Z,29.43
2017-11-04T16:24:22.581Z,29.27
2017-11-04T16:26:50.007Z,29.20
2017-11-04T16:29:18.186Z,28.30
2017-11-04T16:31:45.599Z,28.70
2017-11-04T16:34:13.015Z,28.30
2017-11-04T16:36:40.435Z,28.53
2017-11-04T16:39:08.615Z,28.63
2017-11-04T16:41:36.803Z,30.00
2017-11-04T16:44:04.223Z,29.40
2017-11-04T16:46:31.920Z,28.07
2017-11-04T16:48:59.334Z,29.53
2017-11-04T16:51:26.876Z,26.70
2017-11-04T16:53:54.270Z,26.87
2017-11-04T16:56:22.964Z,25.60
2017-11-04T16:58:52.079Z,27.80
2017-11-04T17:01:19.496Z,27.83
2017-11-04T17:03:47.012Z,28.07
2017-11-04T17:06:14.450Z,28.43
2017-11-04T17:08:41.876Z,27.70
2017-11-04T17:11:10.058Z,26.20
2017-11-04T17:13:37.502Z,27.77
2017-11-04T17:16:05.734Z,28.07
2017-11-04T17:18:33.147Z,28.60
2017-11-04T17:21:01.288Z,27.20
2017-11-04T17:23:28.705Z,29.07
2017-11-04T17:25:56.150Z,28.77
2017-11-04T17:28:23.563Z,28.63
2017-11-04T17:30:50.986Z,28.33
2017-11-04T17:33:18.404Z,28.50
2017-11-04T17:35:45.827Z,29.20
2017-11-04T17:38:13.270Z,28.00
2017-11-04T17:40:40.680Z,27.50
2017-11-04T17:43:08.095Z,27.37
2017-11-04T17:45:35.518Z,30.13
2017-11-04T17:48:02.957Z,28.30
2017-11-04T17:50:30.372Z,29.50
2017-11-04T17:52:58.559Z,28.40
2017-11-04T17:55:26.776Z,29.43
2017-11-04T17:57:54.218Z,27.90
2017-11-04T18:00:21.633Z,29.23
2017-11-04T18:02:49.826Z,30.03
2017-11-04T18:05:17.310Z,28.80
2017-11-04T18:07:44.773Z,27.00
2017-11-04T18:10:12.179Z,26.50
2017-11-04T18:12:40.373Z,27.77
2017-11-04T18:15:07.811Z,28.33
2017-11-04T18:17:36.025Z,29.20
2017-11-04T18:20:03.438Z,26.63
2017-11-04T18:22:31.632Z,27.20
2017-11-04T18:24:59.058Z,27.07
2017-11-04T18:27:26.547Z,25.90
2017-11-04T18:29:53.963Z,25.87
2017-11-04T18:32:21.391Z,24.47
2017-11-04T18:34:48.815Z,25.90
2017-11-04T18:37:16.474Z,23.73
2017-11-04T18:39:43.891Z,22.63
2017-11-04T18:42:11.322Z,23.17
2017-11-04T18:44:38.736Z,21.93
2017-11-04T18:47:06.155Z,22.23
2017-11-04T18:49:33.579Z,23.33
2017-11-04T18:52:00.991Z,21.43
2017-11-04T18:54:29.173Z,22.60
2017-11-04T18:56:57.379Z,22.53
2017-11-04T18:59:24.796Z,23.60
2017-11-04T19:01:52.992Z,22.20
2017-11-04T19:04:20.404Z,22.27
2017-11-04T19:06:48.339Z,22.70
2017-11-04T19:09:15.802Z,22.37
2017-11-04T19:11:43.240Z,21.37
2017-11-04T19:14:10.671Z,22.60
2017-11-04T19:16:38.846Z,22.70
2017-11-04T19:19:06.270Z,22.30
2017-11-04T19:21:34.451Z,23.37
2017-11-04T19:24:03.393Z,23.40
2017-11-04T19:26:30.799Z,22.37
2017-11-04T19:28:58.215Z,24.03
2017-11-04T19:31:25.643Z,23.80
2017-11-04T19:33:53.062Z,23.50
2017-11-04T19:36:20.523Z,24.03
2017-11-04T19:38:48.715Z,23.60
2017-11-04T19:41:16.933Z,23.43
2017-11-04T19:43:44.371Z,25.40
2017-11-04T19:46:11.786Z,23.50
2017-11-04T19:48:39.980Z,24.00
2017-11-04T19:51:07.398Z,25.17
2017-11-04T19:53:34.815Z,23.43
2017-11-04T19:56:02.271Z,23.60
2017-11-04T19:58:29.688Z,22.10
2017-11-04T20:00:57.863Z,24.40
2017-11-04T20:03:26.044Z,23.30
2017-11-04T20:05:55.151Z,23.17
2017-11-04T20:08:22.570Z,23.03
2017-11-04T20:10:49.990Z,24.00
2017-11-04T20:13:17.414Z,22.83
2017-11-04T20:15:44.839Z,23.57
2017-11-04T20:18:12.254Z,23.80
2017-11-04T20:20:39.684Z,21.67
2017-11-04T20:23:07.103Z,23.23
2017-11-04T20:25:34.619Z,22.70
2017-11-04T20:28:02.039Z,23.73
2017-11-04T20:30:30.226Z,19.77
2017-11-04T20:32:58.287Z,22.37
2017-11-04T20:35:26.475Z,23.53
2017-11-04T20:37:53.894Z,22.17
2017-11-04T20:40:21.303Z,23.70
2017-11-04T20:42:49.167Z,22.00
2017-11-04T20:45:16.579Z,22.87
2017-11-04T20:47:44.751Z,22.53
2017-11-04T20:50:12.941Z,22.10
2017-11-04T20:52:41.126Z,23.30
2017-11-04T20:55:08.543Z,23.50
2017-11-04T20:57:36.672Z,22.20
2017-11-04T21:00:04.112Z,23.50
2017-11-04T21:02:31.530Z,21.80
2017-11-04T21:04:58.959Z,22.63
2017-11-04T21:07:26.379Z,22.63
2017-11-04T21:09:53.796Z,24.20
2017-11-04T21:12:21.306Z,24.60
2017-11-04T21:14:48.764Z,24.47
2017-11-04T21:17:16.185Z,23.17
2017-11-04T21:19:44.419Z,25.33
2017-11-04T21:22:11.855Z,25.10
2017-11-04T21:24:39.271Z,24.60
2017-11-04T21:27:07.463Z,25.13
2017-11-04T21:29:34.862Z,25.60
2017-11-04T21:32:02.307Z,26.13
2017-11-04T21:34:29.732Z,25.70
2017-11-04T21:36:57.147Z,25.93
2017-11-04T21:39:24.566Z,23.07
2017-11-04T21:41:51.983Z,23.50
2017-11-04T21:44:20.167Z,23.13
2017-11-04T21:46:47.592Z,23.42
2017-11-04T21:49:15.000Z,23.90
2017-11-04T21:51:42.457Z,25.13
2017-11-04T21:54:09.868Z,24.80
2017-11-04T21:56:38.064Z,22.50
2017-11-04T21:59:05.492Z,25.13
2017-11-04T22:01:33.319Z,22.63
2017-11-04T22:04:00.730Z,25.90
2017-11-04T22:06:28.923Z,23.27
2017-11-04T22:08:57.699Z,22.45
2017-11-04T22:11:27.346Z,23.63
2017-11-04T22:13:54.774Z,22.93
2017-11-04T22:16:22.200Z,22.43
2017-11-04T22:18:50.394Z,21.60
2017-11-04T22:21:19.409Z,23.20
2017-11-04T22:23:46.831Z,21.00
2017-11-04T22:26:15.020Z,22.53
2017-11-04T22:28:42.443Z,20.25
2017-11-04T22:31:09.860Z,19.70
2017-11-04T22:33:37.279Z,21.12
2017-11-04T22:36:05.451Z,21.30
2017-11-04T22:38:33.656Z,21.30
2017-11-04T22:41:01.937Z,19.47
2017-11-04T22:43:29.352Z,19.10
2017-11-04T22:45:58.140Z,20.23
2017-11-04T22:48:27.282Z,20.23
2017-11-04T22:50:54.740Z,19.03
2017-11-04T22:53:22.139Z,20.77
2017-11-04T22:55:50.327Z,18.47
2017-11-04T22:58:18.529Z,19.13
2017-11-04T23:00:45.949Z,19.30
2017-11-04T23:03:14.134Z,21.73
2017-11-04T23:05:42.351Z,21.67
2017-11-04T23:08:09.768Z,20.23
2017-11-04T23:10:37.187Z,20.17
2017-11-04T23:13:04.604Z,19.03
2017-11-04T23:15:32.010Z,19.10
2017-11-04T23:18:00.218Z,20.07
2017-11-04T23:20:28.586Z,21.43
2017-11-04T23:22:56.020Z,20.80
2017-11-04T23:25:24.935Z,21.63
2017-11-04T23:27:52.363Z,20.30
2017-11-04T23:30:19.774Z,20.00
2017-11-04T23:32:47.186Z,20.93
2017-11-04T23:35:15.379Z,22.07
2017-11-04T23:37:42.844Z,21.63
2017-11-04T23:40:10.259Z,22.10
2017-11-04T23:42:37.675Z,22.70
2017-11-04T23:45:05.097Z,23.17
2017-11-04T23:47:32.519Z,22.03
2017-11-04T23:49:59.939Z,23.60
2017-11-04T23:52:28.287Z,22.87
2017-11-04T23:54:56.482Z,27.20
2017-11-04T23:57:23.935Z,23.93
2017-11-04T23:59:51.361Z,24.17
